Decoded Metar for KMLT (MILLINOCKET in ME, USA) (IATA:MLT) | Meteo·Mobile Aviation Weather
aviador You're here:

KMLT Decoded Metar

MILLINOCKET in ME, USA
Report Time2019-01-17 00:53:00
UTC Time2019-01-17 01:03:45
Flight Rules vfr VFR
Wind270° at 07 Gusting to 17 kt
W.Decomp.*RWY 29: 7.0 kt HW 0.4 kt LCW
RWY 34: 4.2 kt HW 5.6 kt LCW
W.Rank270° ranks 5
Current wind is above 270° avg. (6.7)
Visibility9999 m
Phenomena:N/A
Clouds:Few 042 Hf
Expected CloudBase > 2,400 ft AGL from Temp-Dew spread
CeilingNone
Temp-3°C (ISA -17)
Dew Point-9°C (64% RH)
AAT-8.5°C
QNH1010 hPa
Density Alt-1,562 ft
Elevation404 ft
Report Wrong Elevation
Raw Report
KMLT 170053Z AUTO 27007G17KT 10SM FEW042 M03/M09 A2982 RMK AO2
SLP110 T10281089=

Extra information for KMLT:More info

Metar Taf Metar & Taf Last 4 Metars F.Rules Stats Wind Profile Meteogram Temp Stats Airport Information Weather charts Add Link Nearby VenuesMetar ALERT Operation Metar Decoded Social comments

AIRNAV info for KMLT